Time;durP1;ratioP1;P1;durP2;ratioP2;P2;SDS_P1;SDS_P2;PMS_P1;PMS_P2;Temp;Humidity;BMP_temperature;BMP_pressure;BME280_temperature;BME280_humidity;BME280_pressure;Samples;Min_cycle;Max_cycle;Signal;HPM_P1;HPM_P2
2022/08/29 00:00:29;;;;;;;53.10;33.63;;;;;;;22.06;46.01;99216.53;5040495;28;20517;-78
2022/08/29 00:02:56;;;;;;;58.95;37.00;;;;;;;22.03;46.26;99212.31;5037970;28;20411;-73
2022/08/29 00:05:24;;;;;;;59.72;36.13;;;;;;;21.99;45.77;99205.63;5019614;28;20043;-72
2022/08/29 00:07:49;;;;;;;61.15;36.70;;;;;;;21.95;45.70;99201.56;5019980;28;20048;-74
2022/08/29 00:10:14;;;;;;;64.82;37.67;;;;;;;21.95;45.51;99204.28;5019447;28;20040;-72
2022/08/29 00:12:41;;;;;;;56.03;36.58;;;;;;;21.96;45.18;99194.25;5020062;28;20051;-76
2022/08/29 00:15:09;;;;;;;57.10;37.60;;;;;;;21.98;45.36;99184.06;5019649;28;20048;-74
2022/08/29 00:17:34;;;;;;;63.58;38.67;;;;;;;21.95;44.88;99196.13;5037320;28;20102;-71
2022/08/29 00:20:00;;;;;;;65.78;41.15;;;;;;;21.93;44.99;99183.78;5037598;28;20040;-69
2022/08/29 00:22:25;;;;;;;61.33;36.50;;;;;;;21.95;45.17;99188.00;5037003;28;20300;-70
2022/08/29 00:24:50;;;;;;;57.50;38.55;;;;;;;21.96;45.33;99175.25;5013336;28;20150;-75
2022/08/29 00:27:15;;;;;;;58.30;37.22;;;;;;;21.99;44.94;99169.50;5011144;28;20044;-74
2022/08/29 00:29:40;;;;;;;64.38;38.65;;;;;;;21.99;45.08;99162.19;5031807;28;20048;-73
2022/08/29 00:32:05;;;;;;;58.97;37.83;;;;;;;22.02;44.85;99160.94;5017322;28;20040;-79
2022/08/29 00:34:30;;;;;;;64.53;40.75;;;;;;;22.03;44.97;99160.75;5018119;28;20044;-79
2022/08/29 00:36:54;;;;;;;61.90;39.17;;;;;;;22.03;45.18;99151.75;5020497;28;20143;-75
2022/08/29 00:39:19;;;;;;;68.85;41.95;;;;;;;22.02;45.04;99152.78;5037295;28;20062;-71
2022/08/29 00:41:44;;;;;;;67.93;40.20;;;;;;;22.00;45.25;99144.88;5036821;28;20121;-75
2022/08/29 00:44:09;;;;;;;66.78;42.10;;;;;;;21.96;45.05;99143.53;5002734;28;20082;-72
2022/08/29 00:46:48;;;;;;;61.05;40.92;;;;;;;21.97;45.01;99139.78;5002594;28;20048;-72
2022/08/29 00:49:21;;;;;;;65.28;40.85;;;;;;;21.92;45.17;99136.81;5018645;28;20051;-69
2022/08/29 00:51:46;;;;;;;69.13;41.42;;;;;;;21.83;45.17;99127.13;5019060;28;20052;-73
2022/08/29 00:54:12;;;;;;;70.65;45.00;;;;;;;21.76;45.50;99139.78;5026843;28;20059;-73
2022/08/29 00:56:39;;;;;;;67.00;41.03;;;;;;;21.78;45.67;99126.88;5066594;28;20460;-74
2022/08/29 00:59:30;;;;;;;64.85;41.25;;;;;;;21.73;45.76;99123.91;5005295;28;20067;-71
2022/08/29 01:01:55;;;;;;;71.88;41.28;;;;;;;21.71;45.58;99118.66;5014569;28;20048;-72
2022/08/29 01:04:20;;;;;;;65.18;41.25;;;;;;;21.66;45.76;99110.28;5036864;28;20047;-71
2022/08/29 01:06:45;;;;;;;61.78;40.13;;;;;;;21.65;45.74;99099.63;5018828;28;20044;-77
2022/08/29 01:09:11;;;;;;;70.10;42.67;;;;;;;21.62;46.02;99103.53;5020464;28;20040;-75
2022/08/29 01:12:22;;;;;;;68.40;42.05;;;;;;;21.60;46.03;99102.06;5035860;28;20462;-71
2022/08/29 01:14:24;;;;;;;62.15;40.65;;;;;;;21.59;46.10;99093.06;5011048;28;20427;-73
2022/08/29 01:16:51;;;;;;;78.55;42.85;;;;;;;21.56;46.39;99095.31;5024664;28;20131;-73
2022/08/29 01:19:36;;;;;;;70.20;43.03;;;;;;;21.56;46.08;99092.59;5038469;28;20143;-71
2022/08/29 01:22:12;;;;;;;74.68;44.17;;;;;;;21.51;46.42;99086.94;5021653;28;20043;-69
2022/08/29 01:24:42;;;;;;;80.68;46.95;;;;;;;21.45;46.96;99079.56;5037873;28;20044;-71
2022/08/29 01:27:10;;;;;;;68.70;43.42;;;;;;;21.39;46.73;99089.31;5038480;28;20544;-72
2022/08/29 01:29:35;;;;;;;75.10;44.50;;;;;;;21.36;46.48;99076.97;5056012;28;20036;-73
2022/08/29 01:32:00;;;;;;;69.57;43.05;;;;;;;21.38;46.68;99072.22;5021509;28;20051;-73
2022/08/29 01:34:27;;;;;;;78.95;45.88;;;;;;;21.43;46.54;99070.81;5057094;28;20040;-69
2022/08/29 01:37:00;;;;;;;73.97;46.67;;;;;;;21.46;46.22;99075.81;5038089;28;20044;-67
2022/08/29 01:39:37;;;;;;;77.13;47.50;;;;;;;21.45;46.08;99071.44;5037270;28;20036;-67
2022/08/29 01:42:09;;;;;;;74.80;46.83;;;;;;;21.40;46.36;99068.47;5038282;28;20635;-68
2022/08/29 01:44:34;;;;;;;76.55;48.60;;;;;;;21.26;47.23;99052.06;5037430;28;20050;-68
2022/08/29 01:47:00;;;;;;;79.03;48.88;;;;;;;21.16;47.19;99048.78;5036728;28;20386;-67
2022/08/29 01:49:26;;;;;;;71.43;47.20;;;;;;;21.11;47.05;99050.38;5034440;28;20032;-71
2022/08/29 01:51:51;;;;;;;72.72;49.13;;;;;;;21.07;47.26;99049.94;5036653;28;20051;-69
2022/08/29 01:54:16;;;;;;;81.05;51.22;;;;;;;21.09;47.01;99045.19;5035724;28;20048;-71
2022/08/29 01:56:44;;;;;;;87.70;50.45;;;;;;;21.11;47.01;99053.09;5001855;28;20048;-72
2022/08/29 01:59:12;;;;;;;87.68;51.45;;;;;;;21.12;46.96;99043.94;5017923;28;20036;-70
2022/08/29 02:01:40;;;;;;;83.65;50.15;;;;;;;21.14;46.93;99055.44;5017833;28;20046;-70
2022/08/29 02:04:06;;;;;;;79.85;49.90;;;;;;;21.12;47.32;99052.06;5018686;28;20036;-71
2022/08/29 02:06:31;;;;;;;90.05;52.90;;;;;;;21.09;47.17;99047.03;5003883;28;20135;-70
2022/08/29 02:08:56;;;;;;;82.97;50.60;;;;;;;21.07;47.23;99044.53;5025476;28;20078;-72
2022/08/29 02:11:21;;;;;;;85.50;51.88;;;;;;;21.05;47.45;99040.31;5036938;28;20123;-68
2022/08/29 02:13:54;;;;;;;83.78;51.90;;;;;;;21.03;47.27;99045.91;5000966;28;20127;-69
2022/08/29 02:16:18;;;;;;;77.40;51.20;;;;;;;21.01;47.02;99034.44;5001314;28;20503;-69
2022/08/29 02:18:44;;;;;;;84.18;53.05;;;;;;;21.01;47.09;99024.44;5017335;28;20526;-68
2022/08/29 02:21:11;;;;;;;86.70;50.05;;;;;;;21.02;47.56;99027.97;5045279;28;20048;-70
2022/08/29 02:23:37;;;;;;;82.47;52.05;;;;;;;21.03;47.26;99021.53;5055564;28;20028;-70
2022/08/29 02:26:03;;;;;;;85.25;53.13;;;;;;;21.03;46.98;99027.78;5055406;28;20401;-72
2022/08/29 02:28:28;;;;;;;83.97;51.45;;;;;;;21.09;46.90;99015.38;5037230;28;20498;-73
2022/08/29 02:30:53;;;;;;;88.03;52.13;;;;;;;21.07;47.26;99012.00;5054713;28;20513;-72
2022/08/29 02:33:19;;;;;;;85.85;52.17;;;;;;;21.09;46.77;99012.66;5055138;28;20131;-72
2022/08/29 02:35:45;;;;;;;89.38;50.25;;;;;;;21.07;46.78;99011.16;5054670;28;20055;-71
2022/08/29 02:38:11;;;;;;;75.65;47.45;;;;;;;21.09;46.86;99009.09;5036824;28;20063;-70
2022/08/29 02:40:36;;;;;;;74.20;48.40;;;;;;;21.09;46.90;99000.97;5019943;28;20081;-70
2022/08/29 02:43:01;;;;;;;80.65;47.90;;;;;;;21.08;46.85;98994.72;5036354;28;20039;-71
2022/08/29 02:45:27;;;;;;;73.55;46.30;;;;;;;21.10;46.89;98983.69;5054812;28;20100;-70
2022/08/29 02:47:51;;;;;;;74.28;44.42;;;;;;;21.10;46.89;98994.53;5036881;28;20428;-70
2022/08/29 02:50:17;;;;;;;80.40;47.22;;;;;;;21.10;46.76;98995.34;5016932;28;20806;-69
2022/08/29 02:52:42;;;;;;;68.95;43.45;;;;;;;21.18;46.32;99000.69;5017235;28;20450;-71
2022/08/29 02:55:14;;;;;;;67.13;41.72;;;;;;;21.18;46.59;99010.66;5007054;28;20404;-72
2022/08/29 02:57:38;;;;;;;76.32;44.80;;;;;;;21.12;47.28;98995.13;5019244;28;20048;-72
2022/08/29 03:00:09;;;;;;;65.88;37.38;;;;;;;20.86;47.39;98988.44;5000524;28;20049;-73
2022/08/29 03:02:34;;;;;;;67.47;38.65;;;;;;;20.62;47.96;98975.22;4984694;28;20043;-72
2022/08/29 03:04:59;;;;;;;71.68;39.05;;;;;;;20.55;47.97;98994.06;4985457;28;20049;-74
2022/08/29 03:07:24;;;;;;;58.53;36.90;;;;;;;20.54;48.50;98986.97;4997703;28;20055;-74
2022/08/29 03:09:48;;;;;;;56.30;36.35;;;;;;;20.55;48.08;98985.94;4996824;28;20113;-72
2022/08/29 03:12:13;;;;;;;62.80;36.25;;;;;;;20.63;47.93;98987.72;4980410;28;20135;-72
2022/08/29 03:14:38;;;;;;;51.40;33.22;;;;;;;20.74;47.42;98975.56;4997836;28;20396;-71
2022/08/29 03:17:03;;;;;;;61.17;35.67;;;;;;;20.82;47.75;98981.69;5014498;28;20492;-73
2022/08/29 03:19:27;;;;;;;52.75;35.05;;;;;;;20.81;47.25;98982.72;4996628;28;20147;-70
2022/08/29 03:21:52;;;;;;;53.60;32.60;;;;;;;20.81;47.91;98980.00;5009958;28;20040;-72
2022/08/29 03:24:17;;;;;;;49.70;33.58;;;;;;;20.73;47.65;98982.00;4996230;28;20049;-71
2022/08/29 03:26:42;;;;;;;57.17;33.90;;;;;;;20.64;47.53;98978.56;4997227;28;20107;-72
2022/08/29 03:29:07;;;;;;;52.40;31.42;;;;;;;20.69;46.99;98980.69;5014614;28;20064;-72
2022/08/29 03:31:31;;;;;;;58.22;31.30;;;;;;;20.74;46.75;98984.53;4996056;28;20044;-72
2022/08/29 03:33:56;;;;;;;52.28;31.17;;;;;;;20.83;46.93;98993.38;4997601;28;20047;-72
2022/08/29 03:36:22;;;;;;;47.97;28.42;;;;;;;20.89;47.15;98988.03;5000775;28;20151;-71
2022/08/29 03:38:47;;;;;;;46.55;28.95;;;;;;;20.94;46.71;98998.28;5018695;28;20578;-71
2022/08/29 03:41:20;;;;;;;47.22;26.70;;;;;;;21.03;46.33;98989.00;5000684;28;20574;-72
2022/08/29 03:43:44;;;;;;;40.28;27.65;;;;;;;21.07;46.16;98963.22;5000354;28;20039;-72
2022/08/29 03:46:09;;;;;;;43.20;26.58;;;;;;;21.13;45.91;98967.84;5000734;28;20044;-70
2022/08/29 03:48:34;;;;;;;48.33;27.08;;;;;;;21.17;45.51;98969.16;5017902;28;20041;-70
2022/08/29 03:50:58;;;;;;;42.33;27.35;;;;;;;21.17;46.12;98963.72;5010392;28;20048;-70
2022/08/29 03:53:23;;;;;;;46.45;27.02;;;;;;;21.17;45.96;98968.31;5037942;28;20589;-70
2022/08/29 03:55:48;;;;;;;39.55;25.63;;;;;;;21.25;45.67;98979.03;5039403;28;20105;-70
2022/08/29 03:58:12;;;;;;;46.75;27.35;;;;;;;21.36;46.11;98968.53;5022666;28;20460;-71
2022/08/29 04:00:37;;;;;;;53.03;27.38;;;;;;;21.52;45.34;98951.13;5040246;28;20568;-69
2022/08/29 04:03:02;;;;;;;42.63;26.67;;;;;;;21.53;45.75;98946.56;5057807;28;20123;-71
2022/08/29 04:05:27;;;;;;;40.60;25.65;;;;;;;21.45;45.85;98933.97;5058152;28;20452;-69
2022/08/29 04:07:57;;;;;;;40.58;26.08;;;;;;;21.42;45.69;98945.22;5057734;28;20058;-70
2022/08/29 04:10:32;;;;;;;41.58;25.15;;;;;;;21.30;46.12;98949.50;5057913;28;20036;-71
2022/08/29 04:12:57;;;;;;;47.47;28.05;;;;;;;21.25;45.69;98947.34;5057539;28;20138;-69
2022/08/29 04:15:24;;;;;;;45.72;28.13;;;;;;;21.22;46.02;98939.59;5058137;28;20071;-71
2022/08/29 04:17:54;;;;;;;46.03;28.95;;;;;;;21.28;46.17;98938.84;5059070;28;20044;-69
2022/08/29 04:20:20;;;;;;;48.35;27.83;;;;;;;21.30;46.18;98925.94;5057497;28;20402;-70
2022/08/29 04:22:45;;;;;;;41.58;26.50;;;;;;;21.31;46.35;98911.34;5039778;28;20044;-70
2022/08/29 04:25:13;;;;;;;39.08;26.58;;;;;;;21.32;45.96;98899.47;5022333;28;20035;-70
2022/08/29 04:27:38;;;;;;;43.60;25.38;;;;;;;21.38;45.80;98897.81;5039415;28;20054;-71
2022/08/29 04:30:11;;;;;;;41.15;25.83;;;;;;;21.52;45.85;98906.91;5023152;28;20395;-71
2022/08/29 04:32:36;;;;;;;47.88;28.15;;;;;;;21.67;45.83;98894.09;5057558;28;20048;-72
2022/08/29 04:35:00;;;;;;;46.70;27.30;;;;;;;21.76;45.26;98892.88;5057044;28;20051;-72
2022/08/29 04:37:25;;;;;;;43.50;25.40;;;;;;;21.93;44.80;98886.09;5022716;28;20052;-71
2022/08/29 04:39:50;;;;;;;40.35;26.48;;;;;;;22.11;44.41;98892.91;5057596;28;20051;-71
2022/08/29 04:42:16;;;;;;;45.90;25.67;;;;;;;22.31;44.02;98896.53;5057137;28;20414;-71
2022/08/29 04:44:41;;;;;;;45.83;26.83;;;;;;;22.57;43.57;98891.19;5043103;28;20036;-72
2022/08/29 04:47:06;;;;;;;45.72;28.25;;;;;;;22.87;42.60;98890.88;5066712;28;20229;-72
2022/08/29 04:49:31;;;;;;;54.83;29.15;;;;;;;23.15;42.13;98884.19;5065491;28;20418;-72
2022/08/29 04:51:55;;;;;;;50.80;28.15;;;;;;;23.33;42.44;98877.31;5039885;28;20098;-72
2022/08/29 04:54:22;;;;;;;44.33;25.30;;;;;;;23.38;41.60;98878.34;5045125;28;20079;-72
2022/08/29 04:56:46;;;;;;;41.50;27.58;;;;;;;23.37;41.70;98878.53;5059484;28;20062;-72
2022/08/29 04:59:11;;;;;;;50.38;28.10;;;;;;;23.37;41.93;98884.81;5044829;28;20036;-71
2022/08/29 05:01:36;;;;;;;48.13;29.48;;;;;;;23.39;42.21;98885.47;5040345;28;20098;-70
2022/08/29 05:04:01;;;;;;;53.63;28.95;;;;;;;23.40;42.57;98889.84;5039488;28;20036;-72
2022/08/29 05:06:25;;;;;;;63.85;38.00;;;;;;;23.35;41.90;98881.50;5057553;28;20055;-71
2022/08/29 05:08:51;;;;;;;46.97;29.88;;;;;;;23.46;41.32;98893.63;5039318;28;20048;-70
2022/08/29 05:11:18;;;;;;;48.72;29.13;;;;;;;23.44;41.21;98912.03;5039504;28;20050;-72
2022/08/29 05:13:44;;;;;;;49.25;29.20;;;;;;;23.01;42.64;98914.31;5057101;28;20051;-72
2022/08/29 05:16:12;;;;;;;55.90;30.00;;;;;;;22.74;43.14;98916.94;5038754;28;20048;-70
2022/08/29 05:18:38;;;;;;;47.05;30.63;;;;;;;22.60;43.14;98901.63;5038988;28;20044;-70
2022/08/29 05:21:03;;;;;;;42.72;28.33;;;;;;;22.46;43.20;98911.63;5038742;28;20119;-71
2022/08/29 05:23:29;;;;;;;62.83;30.75;;;;;;;22.45;43.17;98911.84;5037805;28;20047;-70
2022/08/29 05:25:55;;;;;;;47.90;29.25;;;;;;;22.43;43.45;98892.19;5056432;28;20048;-70
2022/08/29 05:28:20;;;;;;;45.25;28.67;;;;;;;22.57;42.67;98902.06;5056571;28;20044;-70
2022/08/29 05:30:45;;;;;;;52.63;30.77;;;;;;;22.58;42.34;98889.28;5038228;28;20100;-70
2022/08/29 05:33:10;;;;;;;52.45;29.35;;;;;;;22.63;42.77;98887.66;5057182;28;20043;-71
2022/08/29 05:35:34;;;;;;;51.05;29.92;;;;;;;22.74;42.44;98895.22;5056763;28;20414;-70
2022/08/29 05:38:00;;;;;;;51.80;30.88;;;;;;;22.74;42.42;98881.63;5056598;28;20052;-70
2022/08/29 05:40:25;;;;;;;47.70;29.98;;;;;;;22.80;41.98;98891.69;5038397;28;20082;-71
2022/08/29 05:42:50;;;;;;;46.15;27.83;;;;;;;22.83;42.20;98904.03;5039218;28;20519;-71
2022/08/29 05:45:14;;;;;;;59.47;31.70;;;;;;;22.88;41.69;98911.56;5056191;28;20043;-70
2022/08/29 05:47:39;;;;;;;52.25;30.95;;;;;;;22.94;41.65;98892.53;5037874;28;20043;-71
2022/08/29 05:50:06;;;;;;;51.63;31.63;;;;;;;23.08;40.91;98886.09;5057229;28;20051;-70
2022/08/29 05:52:30;;;;;;;57.95;31.77;;;;;;;23.20;41.29;98889.03;5055255;28;20096;-70
2022/08/29 05:54:55;;;;;;;53.17;29.88;;;;;;;23.62;40.38;98879.59;5037338;28;20060;-72
2022/08/29 05:57:22;;;;;;;52.03;30.63;;;;;;;24.20;39.84;98877.78;5037004;28;20070;-72
2022/08/29 05:59:49;;;;;;;56.53;31.98;;;;;;;24.79;38.41;98873.09;5038044;28;20483;-72
2022/08/29 06:02:15;;;;;;;66.28;33.03;;;;;;;24.98;37.42;98869.44;5038067;28;20509;-71
2022/08/29 06:04:40;;;;;;;52.58;32.35;;;;;;;24.95;37.11;98873.44;5056293;28;20142;-71
2022/08/29 06:07:06;;;;;;;54.63;31.45;;;;;;;24.82;37.95;98876.25;5055835;28;20048;-71
2022/08/29 06:09:31;;;;;;;59.00;33.60;;;;;;;24.81;37.69;98879.19;5037819;28;20051;-72
2022/08/29 06:11:57;;;;;;;65.20;41.33;;;;;;;24.79;37.33;98903.09;5037188;28;20036;-72
2022/08/29 06:14:22;;;;;;;59.88;34.30;;;;;;;24.76;37.18;98879.81;5055635;28;20044;-73
2022/08/29 06:16:46;;;;;;;55.97;32.03;;;;;;;24.92;37.45;98887.53;5055980;28;20048;-71
2022/08/29 06:19:12;;;;;;;60.83;34.10;;;;;;;25.08;37.00;98891.59;5039328;28;20054;-71
2022/08/29 06:21:37;;;;;;;55.28;32.60;;;;;;;25.19;36.40;98887.31;5061255;28;20044;-69
2022/08/29 06:24:03;;;;;;;54.15;31.85;;;;;;;25.38;36.06;98886.34;5042042;28;20561;-71
2022/08/29 06:26:28;;;;;;;57.28;32.55;;;;;;;25.76;35.42;98875.28;5054710;28;20044;-71
2022/08/29 06:28:54;;;;;;;56.00;32.60;;;;;;;26.05;34.53;98881.91;5055514;28;20134;-71
2022/08/29 06:31:25;;;;;;;51.03;31.75;;;;;;;25.87;35.36;98868.22;5055266;28;20169;-71
2022/08/29 06:33:52;;;;;;;44.70;30.75;;;;;;;25.67;35.25;98868.44;5054984;28;20047;-71
2022/08/29 06:36:17;;;;;;;50.92;30.15;;;;;;;25.48;35.93;98867.56;5054112;28;20048;-73
2022/08/29 06:38:42;;;;;;;54.35;31.85;;;;;;;25.27;36.29;98867.97;5037442;28;20046;-72
2022/08/29 06:41:11;;;;;;;49.80;31.77;;;;;;;25.20;36.71;98878.06;5055285;28;20052;-71
2022/08/29 06:43:36;;;;;;;56.78;31.13;;;;;;;25.36;36.28;98876.69;5036805;28;20043;-72
2022/08/29 06:46:01;;;;;;;53.42;30.33;;;;;;;25.63;35.09;98878.97;5036328;28;20032;-72
2022/08/29 06:48:26;;;;;;;49.28;30.55;;;;;;;25.47;35.15;98874.06;5037246;28;20044;-71
2022/08/29 06:50:51;;;;;;;54.45;32.00;;;;;;;25.32;35.28;98865.38;5054638;28;20050;-71
2022/08/29 06:53:16;;;;;;;47.70;29.50;;;;;;;25.59;35.07;98871.44;5054673;28;20438;-72
2022/08/29 06:55:40;;;;;;;46.60;29.05;;;;;;;25.88;34.54;98870.72;5035905;28;20048;-71
2022/08/29 06:58:05;;;;;;;48.00;30.17;;;;;;;26.62;33.65;98866.09;5000457;28;20046;-71
2022/08/29 07:00:31;;;;;;;49.75;30.27;;;;;;;27.56;32.68;98856.19;5035262;28;20064;-71
2022/08/29 07:02:56;;;;;;;44.83;31.08;;;;;;;27.92;31.28;98872.38;4999958;28;20055;-70
2022/08/29 07:05:22;;;;;;;50.63;31.65;;;;;;;27.98;31.07;98867.84;5034977;28;20043;-71
2022/08/29 07:07:49;;;;;;;47.65;31.27;;;;;;;28.22;29.99;98871.41;5016363;28;20499;-70
2022/08/29 07:10:14;;;;;;;51.38;31.45;;;;;;;28.40;29.36;98863.84;5033655;28;20139;-71
2022/08/29 07:12:39;;;;;;;56.80;32.33;;;;;;;28.14;30.14;98867.09;5015937;28;20048;-71
2022/08/29 07:15:05;;;;;;;52.20;31.83;;;;;;;27.89;30.51;98872.00;5033756;28;20411;-71
2022/08/29 07:17:30;;;;;;;47.88;31.33;;;;;;;27.75;31.32;98865.97;5034295;28;20136;-72
2022/08/29 07:19:55;;;;;;;51.97;31.80;;;;;;;27.55;31.36;98868.19;5015984;28;20524;-71
2022/08/29 07:22:20;;;;;;;41.13;31.00;;;;;;;27.61;32.08;98870.03;5034400;28;20489;-70
2022/08/29 07:24:45;;;;;;;56.97;32.75;;;;;;;28.39;31.63;98873.16;5034349;28;20044;-71
2022/08/29 07:27:11;;;;;;;56.22;34.60;;;;;;;29.51;29.47;98865.06;5034231;28;20044;-70
2022/08/29 07:29:36;;;;;;;52.92;33.70;;;;;;;30.33;28.61;98859.66;5034965;28;20064;-70
2022/08/29 07:32:01;;;;;;;48.13;32.95;;;;;;;30.95;26.85;98866.66;5016396;28;20078;-71
2022/08/29 07:34:26;;;;;;;55.55;33.13;;;;;;;31.73;26.05;98865.16;5000131;28;20047;-71
2022/08/29 07:36:51;;;;;;;53.45;32.30;;;;;;;32.83;25.40;98876.19;5034989;28;20123;-72
2022/08/29 07:39:17;;;;;;;50.58;29.73;;;;;;;33.38;24.01;98870.75;5017201;28;20131;-71
2022/08/29 07:41:44;;;;;;;51.03;30.80;;;;;;;33.99;23.06;98864.31;5016809;28;20048;-70
2022/08/29 07:44:10;;;;;;;44.67;30.65;;;;;;;34.30;22.77;98877.00;5016538;28;20398;-69
2022/08/29 07:46:36;;;;;;;42.97;28.13;;;;;;;34.93;22.31;98868.94;5033634;28;20045;-69
2022/08/29 07:49:00;;;;;;;49.08;30.63;;;;;;;34.55;22.48;98870.50;4999905;28;20044;-71
2022/08/29 07:51:25;;;;;;;47.13;29.65;;;;;;;34.64;22.08;98866.03;5000432;28;20055;-71
2022/08/29 07:53:50;;;;;;;46.88;31.10;;;;;;;34.68;22.27;98858.81;5034438;28;20044;-71
2022/08/29 07:56:28;;;;;;;41.65;29.17;;;;;;;35.20;22.21;98877.63;5016706;28;20044;-70
2022/08/29 07:58:55;;;;;;;47.45;30.48;;;;;;;35.49;21.74;98876.84;5034996;28;20131;-71
2022/08/29 08:01:19;;;;;;;43.63;29.73;;;;;;;34.17;22.59;98864.56;5034399;28;20044;-70
2022/08/29 08:03:45;;;;;;;40.05;27.17;;;;;;;32.86;23.69;98875.63;5000234;28;20032;-70
2022/08/29 08:06:10;;;;;;;42.70;28.10;;;;;;;31.90;24.88;98876.03;5001598;28;20052;-71
2022/08/29 08:08:36;;;;;;;47.28;28.67;;;;;;;31.60;25.33;98866.44;5034063;28;20052;-72
2022/08/29 08:11:05;;;;;;;37.90;26.05;;;;;;;31.75;25.87;98871.25;5034231;28;20392;-71
2022/08/29 08:13:31;;;;;;;42.22;26.35;;;;;;;32.17;24.82;98867.63;5033905;28;20041;-71
2022/08/29 08:15:55;;;;;;;36.22;24.08;;;;;;;32.62;24.43;98861.50;5034275;28;20399;-71
2022/08/29 08:18:21;;;;;;;36.20;21.42;;;;;;;32.98;23.69;98866.00;5015902;28;20356;-71
2022/08/29 08:20:47;;;;;;;36.88;22.90;;;;;;;33.07;23.68;98855.25;5036480;28;20052;-71
2022/08/29 08:23:11;;;;;;;35.40;21.83;;;;;;;33.24;23.71;98857.75;5038626;28;20067;-71
2022/08/29 08:25:36;;;;;;;30.50;20.10;;;;;;;33.67;23.38;98862.72;5049541;28;20048;-72
2022/08/29 08:28:01;;;;;;;29.27;18.67;;;;;;;34.20;22.74;98874.25;5024408;28;20897;-71
2022/08/29 08:30:26;;;;;;;30.15;15.55;;;;;;;34.34;21.86;98852.34;5038208;28;20506;-71
2022/08/29 08:32:52;;;;;;;23.23;15.32;;;;;;;34.32;21.94;98860.09;5038331;28;20036;-72
2022/08/29 08:35:18;;;;;;;28.38;14.40;;;;;;;34.41;21.89;98859.25;5020513;28;20048;-72
2022/08/29 08:37:43;;;;;;;31.88;14.00;;;;;;;35.00;21.61;98854.75;5020444;28;20047;-73
2022/08/29 08:40:18;;;;;;;23.13;13.75;;;;;;;35.87;21.02;98873.19;5003512;28;20131;-72
2022/08/29 08:42:44;;;;;;;23.80;12.85;;;;;;;36.69;20.08;98862.78;5020140;28;20083;-71
2022/08/29 08:45:21;;;;;;;17.48;11.15;;;;;;;37.41;19.53;98873.66;5020202;28;20040;-73
2022/08/29 08:47:55;;;;;;;24.67;10.73;;;;;;;36.71;19.93;98876.38;5037862;28;20052;-71
2022/08/29 08:50:36;;;;;;;18.58;9.98;;;;;;;35.25;21.71;98871.22;5037873;28;20044;-70
2022/08/29 08:53:11;;;;;;;21.38;9.18;;;;;;;34.93;22.18;98880.84;5037712;28;20136;-71
2022/08/29 08:55:43;;;;;;;17.58;9.10;;;;;;;34.88;22.26;98866.19;5020633;28;20517;-71
2022/08/29 08:58:23;;;;;;;15.52;7.05;;;;;;;34.72;22.35;98857.13;5039500;28;20106;-71
2022/08/29 09:00:54;;;;;;;12.52;5.90;;;;;;;34.20;23.04;98861.22;5039572;28;20055;-71
2022/08/29 09:03:32;;;;;;;11.75;5.75;;;;;;;33.99;23.13;98856.84;5022517;28;20040;-70
2022/08/29 09:06:18;;;;;;;15.40;7.32;;;;;;;33.87;23.79;98856.34;5057438;28;20063;-69
2022/08/29 09:08:52;;;;;;;14.32;6.50;;;;;;;34.58;23.54;98861.63;5059143;28;20415;-69
2022/08/29 09:11:25;;;;;;;21.42;8.93;;;;;;;35.31;22.60;98867.31;5040111;28;20047;-70
2022/08/29 09:14:25;;;;;;;17.20;7.22;;;;;;;36.25;21.98;98868.59;5039310;28;20047;-69
2022/08/29 09:16:53;;;;;;;12.13;6.13;;;;;;;36.23;21.80;98872.81;5021868;28;20067;-70
2022/08/29 09:19:18;;;;;;;15.65;7.22;;;;;;;35.53;21.84;98870.44;5056946;28;20105;-71
2022/08/29 09:21:52;;;;;;;18.75;6.90;;;;;;;34.41;23.27;98875.00;5038910;28;20075;-70
2022/08/29 09:24:31;;;;;;;17.00;7.05;;;;;;;33.09;24.52;98873.19;5056700;28;20057;-71
2022/08/29 09:26:56;;;;;;;18.13;6.90;;;;;;;31.80;25.62;98874.03;5038686;28;20039;-70
2022/08/29 09:29:26;;;;;;;13.35;6.07;;;;;;;31.28;26.37;98877.47;5056812;28;20047;-71
2022/08/29 09:32:06;;;;;;;10.85;6.57;;;;;;;30.70;27.17;98888.44;5037417;28;20039;-69
2022/08/29 09:34:38;;;;;;;17.13;6.75;;;;;;;29.87;28.78;98879.34;5038730;28;20047;-70
2022/08/29 09:37:14;;;;;;;20.75;7.40;;;;;;;29.25;30.04;98885.75;5038299;28;20032;-70
2022/08/29 09:39:52;;;;;;;23.48;7.05;;;;;;;30.41;28.44;98887.78;5056503;28;20052;-70
2022/08/29 09:42:21;;;;;;;20.92;7.05;;;;;;;31.97;26.69;98893.97;5038535;28;20063;-71
2022/08/29 09:44:56;;;;;;;14.85;6.53;;;;;;;33.74;24.64;98887.31;5055207;28;20047;-73
2022/08/29 09:47:29;;;;;;;15.52;7.85;;;;;;;34.72;23.14;98886.75;5056512;28;20044;-72
2022/08/29 09:50:23;;;;;;;16.25;6.82;;;;;;;36.22;22.50;98893.38;5038375;28;20040;-72
2022/08/29 09:53:03;;;;;;;10.75;7.03;;;;;;;37.62;20.46;98896.41;5048549;28;20124;-71
2022/08/29 09:55:39;;;;;;;23.75;7.68;;;;;;;37.98;20.40;98882.69;5037958;28;20051;-71
2022/08/29 09:58:05;;;;;;;16.83;6.93;;;;;;;38.49;18.89;98888.88;5038207;28;20491;-70
2022/08/29 10:00:37;;;;;;;18.80;8.07;;;;;;;37.91;20.06;98865.56;5021146;28;20035;-71
2022/08/29 10:03:05;;;;;;;21.70;8.30;;;;;;;37.29;20.54;98898.31;5056058;28;20563;-71
2022/08/29 10:05:35;;;;;;;24.83;7.57;;;;;;;37.30;19.71;98884.13;5056381;28;20130;-72
2022/08/29 10:08:02;;;;;;;21.92;7.30;;;;;;;37.22;19.90;98875.66;5056046;28;20058;-72
2022/08/29 10:10:31;;;;;;;16.33;6.90;;;;;;;37.62;19.71;98891.66;5055954;28;20108;-71
2022/08/29 10:13:18;;;;;;;14.07;6.20;;;;;;;36.60;20.29;98883.16;5020920;28;20040;-71
2022/08/29 10:15:51;;;;;;;50.63;11.00;;;;;;;33.88;23.14;98874.59;5056064;28;20410;-71
2022/08/29 10:18:27;;;;;;;24.20;7.90;;;;;;;32.10;25.97;98896.28;5056241;28;20157;-71
2022/08/29 10:21:14;;;;;;;31.88;9.15;;;;;;;30.59;27.71;98874.53;5021150;28;20532;-70
2022/08/29 10:23:39;;;;;;;23.05;8.43;;;;;;;29.77;29.48;98874.53;5021320;28;20040;-70
2022/08/29 10:26:25;;;;;;;18.63;8.10;;;;;;;29.46;29.99;98877.91;5063419;28;20482;-70
2022/08/29 10:28:59;;;;;;;23.20;8.38;;;;;;;28.77;31.48;98879.91;5059116;28;20040;-69
2022/08/29 10:31:36;;;;;;;27.38;8.93;;;;;;;27.89;33.75;98888.44;5020903;28;20051;-71
2022/08/29 10:34:04;;;;;;;13.85;7.82;;;;;;;27.48;34.64;98884.75;5037815;28;20090;-70
2022/08/29 10:36:36;;;;;;;20.85;8.50;;;;;;;26.91;35.26;98880.78;5037612;28;20052;-70
2022/08/29 10:39:04;;;;;;;22.23;7.97;;;;;;;26.70;36.13;98884.88;5055509;28;20093;-69
2022/08/29 10:41:41;;;;;;;18.70;7.18;;;;;;;26.48;36.56;98890.03;5037539;28;20048;-70
2022/08/29 10:44:23;;;;;;;23.13;7.13;;;;;;;26.86;35.71;98876.03;5037353;28;20097;-71
2022/08/29 10:47:06;;;;;;;16.02;6.45;;;;;;;26.88;35.81;98912.19;5055369;28;20056;-70
2022/08/29 10:49:48;;;;;;;38.47;8.15;;;;;;;26.86;36.05;98895.19;5037321;28;20050;-70
2022/08/29 10:52:21;;;;;;;19.90;6.43;;;;;;;26.81;35.37;98892.31;5055686;28;20491;-70
2022/08/29 10:55:07;;;;;;;21.48;7.45;;;;;;;26.51;36.37;98895.03;5037055;28;20047;-71
2022/08/29 10:58:03;;;;;;;26.52;7.38;;;;;;;26.77;36.45;98902.03;5055437;28;20108;-71
2022/08/29 11:00:34;;;;;;;16.67;6.85;;;;;;;26.54;36.66;98902.75;5055724;28;20047;-72
2022/08/29 11:03:27;;;;;;;16.77;6.35;;;;;;;26.49;37.23;98897.16;5037316;28;20397;-72
2022/08/29 11:06:00;;;;;;;24.95;8.02;;;;;;;26.39;37.84;98905.91;5055948;28;20047;-72
2022/08/29 11:08:33;;;;;;;20.73;7.22;;;;;;;26.36;38.39;98906.38;5037483;28;20048;-73
2022/08/29 11:10:58;;;;;;;29.13;8.55;;;;;;;26.26;39.28;98902.47;5037516;28;20055;-71
2022/08/29 11:13:30;;;;;;;20.90;7.50;;;;;;;26.30;39.87;98898.22;5037259;28;20044;-72
2022/08/29 11:16:04;;;;;;;23.65;7.70;;;;;;;26.56;39.15;98917.03;5056782;28;20559;-71
2022/08/29 11:18:35;;;;;;;;;;;;;;;26.77;38.51;98929.38;5042784;28;20043;-71
2022/08/29 11:21:27;;;;;;;29.75;7.43;;;;;;;26.35;38.33;98921.09;5056901;28;19916;-69
2022/08/29 11:23:51;;;;;;;30.95;8.30;;;;;;;26.22;37.83;98928.56;5037057;28;20040;-72